Ana Sayfa
METAR-TAF:

METAR-TAF

Havaalanları :

New Castle, Pensilvanya, Amerika Birleşik Devletleri

Enlem: 41-01-31N, Boylam: 080-24-48W, yükseklik: 326 m

Güncel hava durumu gözlemi

Rapor saat 19:56 UTC de 35 dakika önce yapıldı.
Rüzgar kuzeybatıdan 12 kt
Sıcaklık 15°C
Nem 44%
Basınç 1025 hPa
Görüş mesafesi: 16.1 km
5000 ft yükseklikte az bulutlu

METAR: KUCP 311956Z AUTO 32012KT 10SM FEW050 15/03 A3027 RMK AO2 SLP268 T01500033 PNO $

Saat: 16:31 (20:31 UTC)


TAF: eksik

4.000'den fazla havaalanı için hava durumu gözlemleri ve tahminleri (METAR ve TAF raporları).

Kullanılabilir istasyonlar harita üzerinde sarı ve kırmızı noktalarla gösterilir.

İstasyonun adını görmek için fareyi noktanın üzerinde gezdirin.

Sonrasında hava gözlem ve tahminlerini görmek için tıklayın.

Haritayı değiştirmek için: yaklaştırmak için siyah artı işaretli yeşil düğmeye ve uzaklaştırmak için de eksi işaretli düğmeye hızla tıklayın; bitişik haritalar için yeşil okları kullanın.


METAR-TAF: